Time;durP1;ratioP1;P1;durP2;ratioP2;P2;SDS_P1;SDS_P2;PMS_P1;PMS_P2;Temp;Humidity;BMP_temperature;BMP_pressure;BME280_temperature;BME280_humidity;BME280_pressure;Samples;Min_cycle;Max_cycle;Signal;HPM_P1;HPM_P2
2023/09/27 17:18:40;;;;;;;12.70;7.70;;;;;;;20.30;58.68;100757.92;126679;1301;636144;-69
2023/09/27 17:21:42;;;;;;;14.50;8.10;;;;;;;20.14;59.09;100759.09;129382;1273;114767;-70
2023/09/27 17:24:45;;;;;;;13.30;8.30;;;;;;;19.99;59.44;100759.70;129348;1283;114827;-70
2023/09/27 17:27:47;;;;;;;13.70;8.40;;;;;;;19.85;59.62;100761.78;129037;1285;116660;-70
2023/09/27 17:30:53;;;;;;;17.50;8.30;;;;;;;19.72;59.99;100760.82;126949;1272;3389599;-69
2023/09/27 17:33:55;;;;;;;15.40;8.50;;;;;;;19.58;60.40;100759.00;129134;1273;114798;-70
2023/09/27 17:36:57;;;;;;;15.10;8.90;;;;;;;19.46;60.74;100763.11;129301;1271;114792;-70
2023/09/27 17:40:07;;;;;;;14.00;8.00;;;;;;;19.35;61.20;100764.71;129419;1269;114776;-70
2023/09/27 17:43:09;;;;;;;19.10;8.60;;;;;;;19.25;61.48;100762.73;129577;1271;114767;-71
2023/09/27 17:46:24;;;;;;;17.80;8.90;;;;;;;19.19;61.80;100765.59;129455;1270;114731;-70
2023/09/27 17:49:28;;;;;;;15.00;8.30;;;;;;;19.12;62.09;100763.94;129664;1270;116469;-71
2023/09/27 17:52:30;;;;;;;18.00;8.80;;;;;;;19.06;62.33;100767.08;129608;1267;114818;-69
2023/09/27 17:55:33;;;;;;;13.70;8.10;;;;;;;19.02;62.59;100769.48;129631;1271;114810;-70
2023/09/27 17:58:35;;;;;;;19.70;8.50;;;;;;;18.97;62.82;100769.77;129584;1264;114740;-70
2023/09/27 18:01:37;;;;;;;17.70;7.70;;;;;;;18.93;63.08;100769.52;129556;1270;114730;-70
2023/09/27 18:04:40;;;;;;;15.00;8.10;;;;;;;18.91;63.36;100771.66;129426;1287;114834;-71
2023/09/27 18:07:42;;;;;;;18.30;8.50;;;;;;;18.89;63.61;100772.13;129308;1288;114824;-71
2023/09/27 18:10:49;;;;;;;17.40;9.20;;;;;;;18.87;63.74;100773.80;129420;1288;114679;-70
2023/09/27 18:13:52;;;;;;;12.60;8.00;;;;;;;18.84;63.95;100776.91;129440;1270;114868;-70
2023/09/27 18:16:54;;;;;;;16.50;8.70;;;;;;;18.82;64.21;100775.56;129339;1283;114873;-70
2023/09/27 18:19:56;;;;;;;22.70;9.60;;;;;;;18.81;64.36;100776.40;129456;1270;114762;-70
2023/09/27 18:22:59;;;;;;;14.60;8.80;;;;;;;18.79;64.64;100781.40;129440;1285;114775;-69
2023/09/27 18:26:01;;;;;;;18.50;9.20;;;;;;;18.79;64.70;100784.14;129397;1277;114775;-68
2023/09/27 18:29:03;;;;;;;11.00;8.60;;;;;;;18.78;65.01;100785.89;129377;1277;114824;-69
2023/09/27 18:32:05;;;;;;;14.10;8.70;;;;;;;18.78;65.06;100786.27;128867;1287;116443;-69
2023/09/27 18:35:08;;;;;;;16.10;9.20;;;;;;;18.76;65.24;100783.70;129509;1266;114892;-69
2023/09/27 18:38:10;;;;;;;17.30;8.90;;;;;;;18.73;65.33;100782.81;129548;1288;115279;-69
2023/09/27 18:41:13;;;;;;;21.40;9.30;;;;;;;18.70;65.44;100786.50;129487;1288;114760;-69
2023/09/27 18:44:19;;;;;;;13.80;8.40;;;;;;;18.64;65.68;100783.89;129388;1270;114864;-70
2023/09/27 18:47:21;;;;;;;17.80;9.20;;;;;;;18.60;65.74;100783.30;129410;1268;129178;-69
2023/09/27 18:50:23;;;;;;;17.00;10.30;;;;;;;18.58;66.07;100779.96;129052;1268;114738;-69
2023/09/27 18:53:25;;;;;;;13.60;8.80;;;;;;;18.55;66.05;100784.15;129550;1270;115409;-69
2023/09/27 18:56:27;;;;;;;12.60;9.20;;;;;;;18.51;66.17;100782.48;128992;1271;114792;-69
2023/09/27 18:59:29;;;;;;;15.10;9.20;;;;;;;18.48;66.26;100781.98;129079;1270;115052;-69
2023/09/27 19:02:32;;;;;;;11.80;9.30;;;;;;;18.44;66.44;100781.95;129407;1270;114811;-70
2023/09/27 19:05:35;;;;;;;18.20;9.10;;;;;;;18.39;66.60;100785.00;129243;1272;114747;-69
2023/09/27 19:08:37;;;;;;;17.60;8.50;;;;;;;18.33;66.68;100785.24;129533;1288;114750;-69
2023/09/27 19:11:39;;;;;;;21.20;9.00;;;;;;;18.28;66.91;100788.75;129423;1270;114834;-70
2023/09/27 19:14:42;;;;;;;14.50;9.50;;;;;;;18.23;66.93;100786.77;129415;1286;114811;-70
2023/09/27 19:17:44;;;;;;;18.10;9.20;;;;;;;18.17;67.21;100788.42;129676;1288;115014;-70
2023/09/27 19:20:46;;;;;;;19.30;8.90;;;;;;;18.12;67.41;100785.14;129374;1270;114808;-69
2023/09/27 19:23:48;;;;;;;15.10;9.50;;;;;;;18.08;67.44;100784.92;129428;1267;114750;-69
2023/09/27 19:26:51;;;;;;;12.70;9.30;;;;;;;18.04;67.62;100779.79;129009;1287;114842;-68
2023/09/27 19:29:53;;;;;;;16.10;8.70;;;;;;;18.01;67.80;100780.16;129290;1287;115090;-70
2023/09/27 19:32:55;;;;;;;17.30;9.90;;;;;;;17.99;68.00;100776.57;129406;1270;114727;-72
2023/09/27 19:35:57;;;;;;;25.00;9.50;;;;;;;17.98;68.26;100775.00;129448;1285;114807;-69
2023/09/27 19:38:59;;;;;;;13.90;9.30;;;;;;;17.97;68.30;100776.33;129149;1273;115464;-70
2023/09/27 19:42:02;;;;;;;14.60;9.60;;;;;;;17.96;68.50;100776.00;129364;1288;114731;-69
2023/09/27 19:45:05;;;;;;;14.80;8.90;;;;;;;17.97;68.65;100778.30;129428;1279;114698;-69
2023/09/27 19:48:07;;;;;;;12.40;8.30;;;;;;;17.99;68.52;100780.02;129448;1287;114759;-70
2023/09/27 19:51:20;;;;;;;13.30;7.80;;;;;;;17.98;68.65;100778.77;129391;1287;114741;-68
2023/09/27 19:54:22;;;;;;;14.20;8.50;;;;;;;17.98;68.74;100776.77;129341;1269;115228;-68
2023/09/27 19:57:24;;;;;;;21.50;9.00;;;;;;;17.98;68.72;100775.70;129289;1269;114744;-69
2023/09/27 20:00:26;;;;;;;21.70;9.10;;;;;;;17.97;68.76;100776.46;129418;1288;114727;-69
2023/09/27 20:03:28;;;;;;;12.50;8.50;;;;;;;17.96;68.66;100774.77;129058;1266;115557;-69
2023/09/27 20:06:36;;;;;;;15.40;8.30;;;;;;;17.93;68.76;100776.04;129342;1267;114837;-69
2023/09/27 20:09:38;;;;;;;13.40;8.20;;;;;;;17.90;68.87;100772.48;129358;1267;128301;-70
2023/09/27 20:12:41;;;;;;;11.90;8.80;;;;;;;17.88;69.03;100772.40;129324;1271;114734;-68
2023/09/27 20:15:43;;;;;;;15.60;10.00;;;;;;;17.87;69.01;100767.27;129327;1288;114911;-68
2023/09/27 20:18:45;;;;;;;11.90;7.80;;;;;;;17.86;69.11;100766.23;129392;1288;114783;-69
2023/09/27 20:21:50;;;;;;;12.20;7.80;;;;;;;17.85;69.06;100766.52;129358;1266;114759;-69
2023/09/27 20:24:52;;;;;;;11.80;8.00;;;;;;;17.84;69.12;100767.33;129192;1274;114853;-69
2023/09/27 20:27:54;;;;;;;20.10;8.80;;;;;;;17.82;69.10;100767.47;129350;1269;115125;-69
2023/09/27 20:30:57;;;;;;;18.20;8.70;;;;;;;17.79;69.21;100770.19;129473;1288;114700;-69
2023/09/27 20:34:00;;;;;;;13.50;7.80;;;;;;;17.77;69.38;100768.88;129034;1273;116442;-69
2023/09/27 20:37:02;;;;;;;18.90;8.60;;;;;;;17.73;69.45;100766.25;129362;1269;114836;-69
2023/09/27 20:40:06;;;;;;;18.10;8.90;;;;;;;17.70;69.52;100768.86;129327;1270;115572;-69
2023/09/27 20:43:08;;;;;;;13.70;8.30;;;;;;;17.65;69.68;100769.90;129390;1288;114738;-69
2023/09/27 20:46:14;;;;;;;19.70;8.80;;;;;;;17.61;69.73;100768.19;129279;1268;114833;-69
2023/09/27 20:49:16;;;;;;;14.70;8.60;;;;;;;17.58;69.76;100769.71;129414;1266;115243;-69
2023/09/27 20:52:19;;;;;;;17.40;8.70;;;;;;;17.53;69.99;100766.43;129345;1287;115360;-71
2023/09/27 20:55:21;;;;;;;19.00;9.20;;;;;;;17.50;70.16;100767.91;129451;1287;114778;-70
2023/09/27 20:58:23;;;;;;;14.00;9.10;;;;;;;17.47;70.37;100770.81;129416;1287;114839;-70
2023/09/27 21:01:35;;;;;;;20.50;9.20;;;;;;;17.44;70.39;100768.67;129514;1286;114840;-69
2023/09/27 21:04:38;;;;;;;17.90;9.20;;;;;;;17.42;70.61;100768.10;129290;1269;128879;-69
2023/09/27 21:07:40;;;;;;;18.50;10.10;;;;;;;17.40;70.82;100765.72;129412;1270;114856;-69
2023/09/27 21:10:42;;;;;;;22.30;9.50;;;;;;;17.38;70.84;100761.86;129493;1270;114740;-70
2023/09/27 21:13:44;;;;;;;16.30;9.00;;;;;;;17.37;71.03;100761.63;129432;1269;114682;-70
2023/09/27 21:16:46;;;;;;;12.60;8.10;;;;;;;17.35;71.06;100756.17;129455;1266;114735;-69
2023/09/27 21:19:48;;;;;;;15.00;8.80;;;;;;;17.32;71.20;100754.70;129529;1269;114833;-69
2023/09/27 21:22:50;;;;;;;16.50;9.50;;;;;;;17.31;71.41;100755.91;129057;1273;114821;-69
2023/09/27 21:25:52;;;;;;;14.30;10.00;;;;;;;17.29;71.63;100759.77;129263;1288;114788;-70
2023/09/27 21:28:55;;;;;;;16.60;9.50;;;;;;;17.29;71.65;100752.96;129441;1288;115280;-69
2023/09/27 21:31:57;;;;;;;24.70;9.80;;;;;;;17.27;71.65;100752.73;129105;1266;115195;-70
2023/09/27 21:34:59;;;;;;;16.20;10.70;;;;;;;17.26;71.87;100751.38;129196;1283;114902;-70
2023/09/27 21:38:01;;;;;;;17.30;10.00;;;;;;;17.25;71.95;100751.06;129434;1285;114830;-70
2023/09/27 21:41:04;;;;;;;20.40;10.10;;;;;;;17.24;72.16;100752.42;129345;1285;114737;-70
2023/09/27 21:44:06;;;;;;;14.10;10.20;;;;;;;17.22;72.11;100752.39;130283;1273;114801;-69
2023/09/27 21:47:09;;;;;;;14.50;9.80;;;;;;;17.20;72.28;100751.11;130239;1276;114806;-69
2023/09/27 21:50:12;;;;;;;14.50;10.30;;;;;;;17.17;72.38;100753.80;130480;1253;115370;-70
2023/09/27 21:53:14;;;;;;;17.60;10.80;;;;;;;17.15;72.52;100752.45;130240;1257;115333;-71
2023/09/27 21:56:16;;;;;;;19.00;11.10;;;;;;;17.14;72.56;100754.51;130257;1257;114805;-71
2023/09/27 21:59:18;;;;;;;21.60;10.90;;;;;;;17.12;72.55;100752.53;130253;1258;116321;-71
2023/09/27 22:02:20;;;;;;;19.20;10.50;;;;;;;17.09;72.75;100752.74;130350;1256;114788;-70
2023/09/27 22:05:29;;;;;;;22.40;10.60;;;;;;;17.06;72.79;100754.19;130180;1257;114760;-71
2023/09/27 22:08:31;;;;;;;17.00;10.80;;;;;;;17.02;72.98;100751.04;130296;1273;128515;-69
2023/09/27 22:11:33;;;;;;;13.80;10.90;;;;;;;16.98;73.11;100751.52;130229;1273;114759;-69
2023/09/27 22:14:35;;;;;;;15.10;11.70;;;;;;;16.93;73.16;100750.02;130289;1257;114815;-70
2023/09/27 22:17:37;;;;;;;20.80;11.40;;;;;;;16.89;73.22;100747.92;129966;1258;114868;-70
2023/09/27 22:20:44;;;;;;;26.70;12.50;;;;;;;16.83;73.23;100745.80;130229;1257;114812;-69
2023/09/27 22:23:46;;;;;;;22.70;12.30;;;;;;;16.78;73.42;100748.11;130182;1254;114987;-71
2023/09/27 22:26:51;;;;;;;24.20;11.40;;;;;;;16.73;73.65;100742.94;130227;1254;114725;-71
2023/09/27 22:29:53;;;;;;;22.20;11.60;;;;;;;16.67;73.78;100738.27;130316;1276;114731;-70
2023/09/27 22:33:02;;;;;;;18.80;11.90;;;;;;;16.62;73.85;100735.71;130259;1257;114797;-70
2023/09/27 22:36:05;;;;;;;20.20;11.80;;;;;;;16.57;74.15;100734.21;130109;1254;114847;-71
2023/09/27 22:39:15;;;;;;;21.10;12.60;;;;;;;16.53;74.24;100736.16;130349;1253;115614;-71
2023/09/27 22:42:17;;;;;;;22.10;11.70;;;;;;;16.48;74.35;100731.02;130133;1259;128078;-71
2023/09/27 22:45:28;;;;;;;18.50;12.40;;;;;;;16.44;74.45;100731.73;130243;1256;114708;-70
2023/09/27 22:48:30;;;;;;;18.70;11.10;;;;;;;16.39;74.63;100732.21;130347;1258;114718;-69
2023/09/27 22:51:32;;;;;;;18.00;13.30;;;;;;;16.34;74.71;100729.11;130394;1257;114747;-69
2023/09/27 22:54:36;;;;;;;18.20;12.70;;;;;;;16.29;74.87;100728.36;130515;1255;114693;-70
2023/09/27 22:57:40;;;;;;;17.40;13.30;;;;;;;16.23;75.05;100726.56;130423;1256;114696;-70
2023/09/27 23:00:45;;;;;;;14.50;12.90;;;;;;;16.17;75.30;100727.50;130240;1259;127713;-70
2023/09/27 23:03:47;;;;;;;21.70;13.80;;;;;;;16.13;75.39;100730.48;130170;1259;114938;-70
2023/09/27 23:07:02;;;;;;;22.90;14.00;;;;;;;16.07;75.54;100730.69;130369;1254;115230;-70
2023/09/27 23:10:11;;;;;;;;;;;;;;;16.01;75.48;100733.75;130212;1256;114901;-70
2023/09/27 23:16:49;;;;;;;22.30;14.40;;;;;;;15.86;75.89;100727.39;130476;1255;128841;-71
2023/09/27 23:19:51;;;;;;;22.70;14.40;;;;;;;15.78;75.92;100728.56;130164;1257;115335;-70
2023/09/27 23:22:56;;;;;;;22.20;14.20;;;;;;;15.72;76.02;100729.88;130363;1257;114757;-71
2023/09/27 23:26:00;;;;;;;25.30;13.70;;;;;;;15.65;76.20;100731.05;130247;1256;114911;-71
2023/09/27 23:29:23;;;;;;;22.60;13.50;;;;;;;15.57;76.24;100727.60;130375;1257;114747;-71
2023/09/27 23:32:29;;;;;;;21.80;13.10;;;;;;;15.47;76.36;100726.55;130278;1259;127939;-71
2023/09/27 23:35:32;;;;;;;24.10;13.90;;;;;;;15.38;76.69;100726.07;130292;1256;115279;-71
2023/09/27 23:42:01;;;;;;;20.00;13.70;;;;;;;15.20;76.90;100724.83;130315;1261;115027;-71
2023/09/27 23:45:14;;;;;;;20.30;13.80;;;;;;;15.11;77.14;100725.55;130239;1253;116463;-70
2023/09/27 23:48:16;;;;;;;22.30;15.00;;;;;;;15.02;77.45;100725.38;130225;1257;129056;-71
2023/09/27 23:51:20;;;;;;;20.00;13.70;;;;;;;14.94;77.24;100723.56;130274;1257;114821;-69
2023/09/27 23:54:22;;;;;;;18.30;13.90;;;;;;;14.86;77.53;100720.42;130318;1254;114752;-70
2023/09/27 23:57:27;;;;;;;19.70;13.60;;;;;;;14.78;77.86;100720.58;130291;1253;115387;-70
